Terminal Aerodrome Forecast
Issued by NWS Cleveland, OH

Home | Current Version | Previous Version | Graphics & Text | Print | Product List | Glossary Off
Versions: 1 2 3 4 5 6 7 8 9 10 11 12 13 14 15 16 17 18 19

000
FTUS41 KCLE 221700
TAFERI
TAF
KERI 221720Z 2218/2318 26011G18KT P6SM SCT015 OVC025
     FM230200 30012G20KT 6SM -SHRA SCT010 OVC025
      TEMPO 2302/2306 4SM -RA BR BKN010
     FM230600 31012G20KT P6SM SCT008 OVC012
      TEMPO 2306/2310 BKN008
     FM231000 31011KT P6SM SCT008 OVC012
      TEMPO 2310/2314 BKN008
     FM231400 31012KT P6SM SCT012 BKN025
     FM231600 32012G20KT P6SM SCT050=

USA.gov is the U.S. government's official web portal to all federal, state and local government web resources and services.